Terminal Aerodrome Forecast
Issued by NWS

Home | Current Version | Previous Version | Text Only | Print | Product List | Glossary On
Versions: 1 2 3 4 5 6 7 8 9 10 11 12 13 14 15
000
FTAK31 PAJN 212342
TAFAJN
TAF
PAJN 212342Z 2200/2224 06004KT P6SM BKN035 OVC050
     FM220300 08005KT P6SM BKN040
     FM220600 00000KT P6SM FEW060
     FM221200 VRB04KT P6SM OVC080
     FM221500 VRB05KT P6SM VCSH OVC050
     FM221800 05005KT 5SM -SN SCT025 OVC040=

USA.gov is the U.S. government's official web portal to all federal, state and local government web resources and services.